Time;durP1;ratioP1;P1;durP2;ratioP2;P2;SDS_P1;SDS_P2;PMS_P1;PMS_P2;Temp;Humidity;BMP_temperature;BMP_pressure;BME280_temperature;BME280_humidity;BME280_pressure;Samples;Min_cycle;Max_cycle;Signal;HPM_P1;HPM_P2
2022/09/30 00:02:11;;;;;;;4.63;0.95;;;;;;;23.41;53.69;95841.81;5035962;28;20024;-34
2022/09/30 00:04:37;;;;;;;1.67;0.65;;;;;;;23.42;53.68;95845.31;5035845;28;20036;-34
2022/09/30 00:07:03;;;;;;;2.10;0.65;;;;;;;23.43;53.52;95844.06;5035928;28;20049;-34
2022/09/30 00:09:28;;;;;;;2.47;0.77;;;;;;;23.36;53.96;95850.22;5036271;28;20060;-33
2022/09/30 00:11:53;;;;;;;4.45;0.85;;;;;;;23.34;53.88;95853.50;5034678;28;20025;-33
2022/09/30 00:14:21;;;;;;;4.25;0.77;;;;;;;23.35;53.68;95851.47;5035968;28;20053;-33
2022/09/30 00:16:48;;;;;;;3.78;0.77;;;;;;;23.38;53.75;95859.47;5035735;28;20029;-33
2022/09/30 00:19:14;;;;;;;1.65;0.95;;;;;;;23.39;53.37;95854.66;5036113;28;20021;-33
2022/09/30 00:21:40;;;;;;;2.85;0.90;;;;;;;23.36;53.77;95862.03;5035658;28;20030;-33
2022/09/30 00:24:07;;;;;;;4.25;0.60;;;;;;;23.27;53.72;95854.84;5035714;28;20029;-34
2022/09/30 00:26:33;;;;;;;2.70;0.88;;;;;;;23.32;53.51;95856.03;5035598;28;20080;-33
2022/09/30 00:29:00;;;;;;;2.55;0.70;;;;;;;23.24;53.60;95847.56;5035867;28;20029;-33
2022/09/30 00:31:29;;;;;;;1.98;0.60;;;;;;;23.29;53.25;95857.81;5035683;28;20120;-33
2022/09/30 00:34:07;;;;;;;3.28;0.50;;;;;;;23.23;53.51;95843.34;5035450;28;20148;-33
2022/09/30 00:36:45;;;;;;;3.15;0.68;;;;;;;23.35;53.22;95851.47;5035576;28;20045;-33
2022/09/30 00:39:31;;;;;;;2.45;0.70;;;;;;;23.33;53.32;95845.72;5035322;28;20486;-33
2022/09/30 00:42:01;;;;;;;2.85;0.68;;;;;;;23.32;53.33;95849.75;5035220;28;20054;-33
2022/09/30 00:44:50;;;;;;;2.15;0.50;;;;;;;23.32;53.02;95838.69;5035345;28;20060;-33
2022/09/30 00:47:39;;;;;;;2.65;0.70;;;;;;;23.29;53.17;95844.00;5033008;28;20465;-34
2022/09/30 00:50:31;;;;;;;1.45;0.68;;;;;;;23.25;53.31;95837.25;5032450;28;20082;-33
2022/09/30 00:53:09;;;;;;;1.85;0.50;;;;;;;23.27;53.15;95838.22;5034804;28;20017;-33
2022/09/30 00:55:43;;;;;;;2.35;0.52;;;;;;;23.27;53.23;95843.03;5033823;28;20378;-33
2022/09/30 00:58:10;;;;;;;2.22;0.70;;;;;;;23.30;52.82;95830.91;5035056;28;20045;-34
2022/09/30 01:00:36;;;;;;;2.40;0.73;;;;;;;23.36;53.10;95839.13;5034855;28;20044;-33
2022/09/30 01:03:03;;;;;;;2.45;0.88;;;;;;;23.25;53.38;95848.31;5035141;28;20410;-33
2022/09/30 01:05:31;;;;;;;2.67;0.60;;;;;;;23.25;53.24;95859.38;5034951;28;20173;-33
2022/09/30 01:07:59;;;;;;;1.60;0.50;;;;;;;23.25;53.23;95853.84;5034832;28;20386;-33
2022/09/30 01:10:24;;;;;;;5.07;0.88;;;;;;;23.27;52.91;95865.91;5034788;28;20067;-33
2022/09/30 01:12:50;;;;;;;3.20;0.82;;;;;;;23.25;53.07;95867.69;5034865;28;20053;-33
2022/09/30 01:15:18;;;;;;;4.13;0.82;;;;;;;23.27;52.97;95874.19;5034482;28;20104;-33
2022/09/30 01:18:25;;;;;;;1.27;0.52;;;;;;;23.21;53.22;95868.00;5034700;28;20034;-33
2022/09/30 01:21:05;;;;;;;2.80;0.55;;;;;;;23.19;52.97;95878.09;5034486;28;20472;-34
2022/09/30 01:23:55;;;;;;;2.90;0.63;;;;;;;23.19;52.72;95878.84;5034483;28;20083;-33
2022/09/30 01:26:51;;;;;;;1.60;0.70;;;;;;;23.15;53.19;95886.69;5034574;28;20022;-33
2022/09/30 01:30:00;;;;;;;1.83;0.57;;;;;;;23.22;52.41;95886.09;5034526;28;20056;-34
2022/09/30 01:32:53;;;;;;;1.95;0.60;;;;;;;23.22;52.69;95883.34;5034477;28;20029;-33
2022/09/30 01:35:30;;;;;;;2.55;0.60;;;;;;;23.26;52.68;95881.00;5034753;28;20036;-33
2022/09/30 01:38:28;;;;;;;2.10;0.60;;;;;;;23.24;52.56;95883.53;5034271;28;20116;-34
2022/09/30 01:41:05;;;;;;;2.85;1.02;;;;;;;23.16;52.78;95876.38;5034438;28;20041;-34
2022/09/30 01:43:58;;;;;;;1.52;0.60;;;;;;;23.25;52.50;95890.56;5034226;28;20465;-33
2022/09/30 01:46:37;;;;;;;;;;;;;;;23.19;52.38;95887.16;5034636;28;20466;-33
2022/09/30 01:49:17;;;;;;;1.48;0.60;;;;;;;23.16;52.53;95904.78;5034721;28;20332;-33
2022/09/30 01:51:59;;;;;;;1.63;0.60;;;;;;;23.12;52.65;95900.84;5034167;28;20021;-33
2022/09/30 01:54:29;;;;;;;2.47;0.70;;;;;;;23.15;52.62;95894.25;5034099;28;20021;-33
2022/09/30 01:57:21;;;;;;;1.73;0.60;;;;;;;23.13;52.42;95880.94;5034117;28;20018;-34
2022/09/30 01:59:56;;;;;;;2.20;0.80;;;;;;;23.07;53.01;95883.03;5033946;28;20032;-33
2022/09/30 02:02:35;;;;;;;1.35;0.70;;;;;;;23.14;52.73;95896.25;5033979;28;20025;-33
2022/09/30 02:05:14;;;;;;;2.53;0.55;;;;;;;23.21;52.58;95884.59;5033864;28;20025;-33
2022/09/30 02:07:45;;;;;;;2.35;0.60;;;;;;;23.21;52.63;95879.06;5033830;28;20075;-33
2022/09/30 02:10:21;;;;;;;1.70;0.50;;;;;;;23.17;52.34;95884.16;5033371;28;20167;-33
2022/09/30 02:12:55;;;;;;;2.58;0.70;;;;;;;23.19;52.47;95887.16;5033701;28;20121;-34
2022/09/30 02:15:22;;;;;;;0.95;0.60;;;;;;;23.24;52.44;95889.06;5033922;28;20095;-33
2022/09/30 02:17:59;;;;;;;2.63;0.70;;;;;;;23.24;52.37;95883.53;5033521;28;20076;-34
2022/09/30 02:20:38;;;;;;;2.53;0.60;;;;;;;23.22;51.96;95874.28;5033582;28;20017;-33
2022/09/30 02:23:06;;;;;;;1.20;0.60;;;;;;;23.19;52.42;95883.63;5033785;28;20029;-33
2022/09/30 02:25:39;;;;;;;3.80;0.70;;;;;;;23.18;52.36;95888.41;5033506;28;20520;-33
2022/09/30 02:28:10;;;;;;;1.63;0.60;;;;;;;23.22;52.44;95882.59;5033577;28;20055;-34
2022/09/30 02:30:41;;;;;;;1.20;0.43;;;;;;;23.21;52.32;95886.63;5033510;28;20033;-34
2022/09/30 02:33:18;;;;;;;3.40;0.98;;;;;;;23.17;52.28;95883.41;5033403;28;20021;-34
2022/09/30 02:36:04;;;;;;;2.35;0.70;;;;;;;23.14;52.38;95882.41;5033496;28;20025;-33
2022/09/30 02:38:36;;;;;;;0.77;0.47;;;;;;;23.18;52.43;95893.94;5033188;28;20045;-34
2022/09/30 02:41:16;;;;;;;2.65;0.50;;;;;;;23.18;52.10;95890.44;5033388;28;20029;-33
2022/09/30 02:43:42;;;;;;;2.22;0.65;;;;;;;23.18;52.04;95891.19;5033290;28;20037;-33
2022/09/30 02:46:13;;;;;;;1.67;0.52;;;;;;;23.15;52.44;95891.47;5033557;28;20026;-33
2022/09/30 02:49:10;;;;;;;2.05;0.65;;;;;;;23.15;51.97;95885.94;5031918;28;20025;-33
2022/09/30 02:51:54;;;;;;;1.58;0.60;;;;;;;23.17;52.18;95884.16;5032770;28;20061;-33
2022/09/30 02:54:45;;;;;;;2.28;0.60;;;;;;;23.17;51.89;95878.63;5033231;28;20030;-33
2022/09/30 02:57:21;;;;;;;1.90;0.43;;;;;;;23.20;51.76;95883.13;5032278;28;20033;-33
2022/09/30 02:59:51;;;;;;;2.63;0.63;;;;;;;23.16;52.03;95888.19;5033077;28;20406;-33
2022/09/30 03:02:17;;;;;;;3.40;0.57;;;;;;;23.18;51.84;95879.38;5033215;28;20033;-34
2022/09/30 03:04:45;;;;;;;2.20;0.60;;;;;;;23.14;51.82;95881.69;5033157;28;20021;-33
2022/09/30 03:07:11;;;;;;;2.53;0.70;;;;;;;23.13;51.90;95882.94;5031941;28;20437;-33
2022/09/30 03:09:36;;;;;;;2.58;0.80;;;;;;;23.12;51.67;95890.50;5033022;28;20092;-33
2022/09/30 03:12:18;;;;;;;1.55;0.50;;;;;;;23.13;51.73;95883.69;5033104;28;20057;-33
2022/09/30 03:14:59;;;;;;;2.42;0.88;;;;;;;23.16;51.83;95877.13;5033119;28;20072;-33
2022/09/30 03:17:42;;;;;;;1.55;0.60;;;;;;;23.04;51.90;95875.03;5033087;28;20023;-33
2022/09/30 03:20:33;;;;;;;4.50;0.93;;;;;;;23.08;51.61;95883.78;5032908;28;20033;-33
2022/09/30 03:22:59;;;;;;;1.20;0.60;;;;;;;23.09;51.60;95891.56;5035962;28;20056;-34
2022/09/30 03:25:43;;;;;;;1.15;0.60;;;;;;;23.09;51.51;95883.25;5036933;28;20017;-33
2022/09/30 03:28:26;;;;;;;2.03;0.65;;;;;;;23.11;51.72;95877.22;5036812;28;20112;-34
2022/09/30 03:31:31;;;;;;;2.80;0.98;;;;;;;23.11;51.43;95886.25;5036806;28;20021;-33
2022/09/30 03:34:14;;;;;;;2.05;0.60;;;;;;;23.12;51.19;95879.44;5034394;28;20034;-33
2022/09/30 03:36:49;;;;;;;1.47;0.60;;;;;;;23.10;51.70;95879.22;5034591;28;20037;-34
2022/09/30 03:39:32;;;;;;;2.35;0.85;;;;;;;23.12;51.18;95876.66;5034543;28;20128;-33
2022/09/30 03:42:28;;;;;;;2.30;0.70;;;;;;;23.11;51.60;95875.19;5034383;28;20025;-33
2022/09/30 03:45:02;;;;;;;1.65;0.60;;;;;;;23.06;51.45;95881.53;5033753;28;20070;-33
2022/09/30 03:47:31;;;;;;;1.67;0.70;;;;;;;23.09;51.37;95880.50;5034238;28;20040;-34
2022/09/30 03:50:01;;;;;;;2.83;0.60;;;;;;;23.07;51.25;95874.72;5034208;28;20053;-33
2022/09/30 03:52:30;;;;;;;2.35;0.60;;;;;;;23.07;51.31;95879.50;5034229;28;20033;-33
2022/09/30 03:55:02;;;;;;;1.42;0.55;;;;;;;23.07;51.36;95869.19;5034176;28;20072;-33
2022/09/30 03:57:28;;;;;;;2.15;0.57;;;;;;;23.02;51.49;95867.25;5034185;28;20072;-33
2022/09/30 03:59:58;;;;;;;3.45;0.90;;;;;;;23.06;51.41;95856.66;5034107;28;20025;-33
2022/09/30 04:02:24;;;;;;;3.85;0.70;;;;;;;23.04;51.46;95858.44;5033857;28;20087;-34
2022/09/30 04:04:49;;;;;;;3.70;0.60;;;;;;;23.10;51.49;95856.34;5034250;28;20033;-33
2022/09/30 04:07:15;;;;;;;4.15;0.85;;;;;;;23.11;51.43;95858.59;5017403;28;20120;-34
2022/09/30 04:09:40;;;;;;;2.63;0.80;;;;;;;23.02;51.42;95861.72;5035455;28;20033;-33
2022/09/30 04:12:07;;;;;;;1.02;0.60;;;;;;;23.05;51.49;95866.22;5035957;28;20426;-33
2022/09/30 04:14:33;;;;;;;2.25;0.60;;;;;;;23.03;51.17;95868.75;5034647;28;20025;-34
2022/09/30 04:16:59;;;;;;;0.80;0.40;;;;;;;23.00;51.49;95872.53;5034501;28;20029;-33
2022/09/30 04:19:24;;;;;;;2.50;0.60;;;;;;;23.00;51.25;95875.31;5035879;28;20458;-33
2022/09/30 04:21:53;;;;;;;1.20;0.50;;;;;;;22.99;51.42;95878.63;5035901;28;20022;-33
2022/09/30 04:24:21;;;;;;;1.85;0.95;;;;;;;23.05;51.11;95882.81;5035659;28;20022;-34
2022/09/30 04:26:47;;;;;;;3.35;0.70;;;;;;;23.06;51.03;95884.31;5035500;28;20462;-33
2022/09/30 04:29:13;;;;;;;1.73;0.60;;;;;;;23.08;51.05;95887.28;5034559;28;20434;-34
2022/09/30 04:31:38;;;;;;;3.78;0.80;;;;;;;23.01;51.04;95881.59;5035435;28;20021;-33
2022/09/30 04:34:04;;;;;;;2.15;0.80;;;;;;;23.06;50.97;95884.31;5035159;28;20067;-33
2022/09/30 04:36:30;;;;;;;2.40;0.75;;;;;;;23.03;51.11;95882.56;5035517;28;20083;-33
2022/09/30 04:38:55;;;;;;;1.55;0.60;;;;;;;23.01;51.16;95882.34;5035483;28;20049;-33
2022/09/30 04:41:21;;;;;;;2.60;0.60;;;;;;;23.02;50.73;95892.13;5035378;28;20103;-34
2022/09/30 04:43:47;;;;;;;2.35;0.80;;;;;;;23.02;50.65;95894.16;5035292;28;20021;-33
2022/09/30 04:46:17;;;;;;;1.65;0.57;;;;;;;22.98;51.26;95908.28;5035258;28;20093;-33
2022/09/30 04:48:47;;;;;;;3.15;0.95;;;;;;;22.99;50.89;95906.28;5035192;28;20026;-34
2022/09/30 04:51:14;;;;;;;0.80;0.50;;;;;;;22.97;51.05;95906.03;5035299;28;20053;-33
2022/09/30 04:53:41;;;;;;;2.63;0.80;;;;;;;23.02;50.62;95907.97;5034701;28;20109;-34
2022/09/30 04:56:07;;;;;;;1.98;0.70;;;;;;;22.97;51.16;95900.50;5034361;28;20124;-34
2022/09/30 04:58:32;;;;;;;1.92;0.80;;;;;;;22.97;50.95;95904.03;5034661;28;20494;-33
2022/09/30 05:01:09;;;;;;;3.30;0.63;;;;;;;22.93;50.58;95898.78;5035052;28;20024;-33
2022/09/30 05:03:35;;;;;;;3.45;0.65;;;;;;;22.88;51.01;95907.13;5035505;28;20048;-33
2022/09/30 05:06:02;;;;;;;0.88;0.52;;;;;;;22.88;51.08;95902.34;5034864;28;20026;-33
2022/09/30 05:08:27;;;;;;;2.15;0.88;;;;;;;22.92;50.40;95908.34;5035024;28;20025;-33
2022/09/30 05:10:57;;;;;;;2.65;1.05;;;;;;;22.91;50.58;95906.09;5034855;28;20573;-34
2022/09/30 05:13:31;;;;;;;3.72;0.60;;;;;;;22.90;50.36;95910.13;5034395;28;20534;-33
2022/09/30 05:15:57;;;;;;;2.10;0.60;;;;;;;22.87;50.70;95911.19;5034633;28;20037;-33
2022/09/30 05:18:25;;;;;;;2.60;0.80;;;;;;;22.93;50.77;95920.91;5034636;28;20025;-34
2022/09/30 05:20:52;;;;;;;2.05;0.85;;;;;;;22.85;50.69;95930.31;5034619;28;20025;-33
2022/09/30 05:23:18;;;;;;;2.70;0.82;;;;;;;22.86;51.02;95931.81;5034685;28;20017;-33
2022/09/30 05:25:45;;;;;;;3.30;0.70;;;;;;;22.92;50.65;95933.22;5034514;28;20538;-33
2022/09/30 05:28:11;;;;;;;2.03;1.00;;;;;;;22.86;50.75;95931.81;5034405;28;20025;-33
2022/09/30 05:30:37;;;;;;;2.70;0.70;;;;;;;22.82;50.75;95925.81;5034506;28;20028;-34
2022/09/30 05:33:02;;;;;;;1.50;0.60;;;;;;;22.74;51.38;95925.63;5034575;28;20030;-33
2022/09/30 05:35:28;;;;;;;1.70;0.70;;;;;;;22.75;51.24;95926.38;5034854;28;20025;-33
2022/09/30 05:37:53;;;;;;;3.00;0.95;;;;;;;22.77;50.87;95929.38;5034122;28;20053;-33
2022/09/30 05:40:19;;;;;;;2.83;1.17;;;;;;;22.74;50.92;95930.41;5034120;28;20079;-34
2022/09/30 05:42:46;;;;;;;3.65;1.10;;;;;;;22.73;51.02;95939.97;5034182;28;20080;-34
2022/09/30 05:45:12;;;;;;;1.90;0.75;;;;;;;22.72;51.04;95944.75;5033553;28;20087;-33
2022/09/30 05:47:38;;;;;;;1.95;1.10;;;;;;;22.81;50.92;95940.91;5034105;28;20421;-33
2022/09/30 05:50:04;;;;;;;2.30;1.08;;;;;;;22.77;50.79;95952.25;5033931;28;20108;-33
2022/09/30 05:52:29;;;;;;;2.75;1.20;;;;;;;22.78;51.13;95956.50;5034119;28;20029;-33
2022/09/30 05:54:56;;;;;;;2.22;1.00;;;;;;;22.82;50.88;95964.53;5034058;28;20099;-33
2022/09/30 05:57:21;;;;;;;2.00;1.08;;;;;;;22.82;51.11;95965.28;5033888;28;20532;-33
2022/09/30 05:59:47;;;;;;;3.10;1.00;;;;;;;22.88;50.95;95965.94;5033958;28;20029;-33
2022/09/30 06:02:12;;;;;;;3.53;1.15;;;;;;;22.82;50.97;95970.06;5032646;28;20021;-33
2022/09/30 06:04:38;;;;;;;2.88;0.90;;;;;;;22.88;50.87;95977.00;5033902;28;20036;-33
2022/09/30 06:07:05;;;;;;;2.50;1.10;;;;;;;22.82;51.18;95976.34;5033616;28;20024;-33
2022/09/30 06:09:30;;;;;;;2.70;1.10;;;;;;;22.86;51.08;95979.56;5033957;28;20021;-34
2022/09/30 06:11:57;;;;;;;2.95;1.10;;;;;;;22.80;51.45;95967.06;5012645;28;20033;-33
2022/09/30 06:14:23;;;;;;;3.40;0.93;;;;;;;22.77;51.13;95965.31;5012292;28;20400;-34
2022/09/30 06:16:49;;;;;;;3.35;1.13;;;;;;;22.80;51.27;95984.38;5012051;28;20037;-33
2022/09/30 06:19:14;;;;;;;4.60;1.00;;;;;;;22.87;51.32;95981.03;5010798;28;20109;-33
2022/09/30 06:21:40;;;;;;;2.67;1.23;;;;;;;22.83;51.36;95972.31;5012016;28;20442;-33
2022/09/30 06:24:08;;;;;;;3.50;0.90;;;;;;;22.86;51.50;95968.50;5028711;28;20389;-33
2022/09/30 06:26:33;;;;;;;2.85;1.10;;;;;;;22.80;51.44;95969.81;5031879;28;20029;-34
2022/09/30 06:28:59;;;;;;;3.67;1.15;;;;;;;22.83;51.69;95977.09;5031668;28;20030;-33
2022/09/30 06:31:24;;;;;;;3.40;1.08;;;;;;;22.90;51.26;95968.19;5030294;28;20024;-33
2022/09/30 06:33:53;;;;;;;3.00;1.40;;;;;;;22.85;51.34;95974.56;5031434;28;20032;-33
2022/09/30 06:36:19;;;;;;;2.97;1.20;;;;;;;22.82;51.79;95964.53;5031606;28;20055;-33
2022/09/30 06:38:50;;;;;;;3.92;1.13;;;;;;;22.75;51.65;95970.63;5031501;28;20045;-34
2022/09/30 06:41:15;;;;;;;3.40;1.60;;;;;;;22.76;51.87;95974.88;5031701;28;20382;-34
2022/09/30 06:43:41;;;;;;;3.33;1.33;;;;;;;22.89;51.39;95980.53;5031607;28;20026;-35
2022/09/30 06:46:07;;;;;;;3.58;1.38;;;;;;;22.91;51.54;95984.28;5031485;28;20025;-33
2022/09/30 06:48:33;;;;;;;3.65;1.35;;;;;;;22.89;51.85;95975.00;5031500;28;20147;-33
2022/09/30 06:50:59;;;;;;;4.90;1.08;;;;;;;22.89;51.61;95986.06;5031521;28;20112;-33
2022/09/30 06:53:26;;;;;;;1.85;1.00;;;;;;;22.87;51.49;95994.88;5031426;28;20363;-33
2022/09/30 06:55:56;;;;;;;4.53;1.13;;;;;;;22.81;51.83;95985.88;5031264;28;20029;-34
2022/09/30 06:58:23;;;;;;;2.58;1.20;;;;;;;22.84;51.82;95986.88;5034118;28;20029;-33
2022/09/30 07:01:04;;;;;;;5.57;1.50;;;;;;;22.82;51.91;95986.63;5016744;28;20049;-33
2022/09/30 07:03:32;;;;;;;3.47;1.10;;;;;;;22.80;52.46;95989.16;5024071;28;20351;-35
2022/09/30 07:05:59;;;;;;;2.33;0.95;;;;;;;22.70;52.11;95999.78;5034543;28;20036;-33
2022/09/30 07:08:30;;;;;;;2.35;1.02;;;;;;;22.78;52.34;95997.97;5035282;28;20100;-33
2022/09/30 07:11:01;;;;;;;3.63;1.23;;;;;;;22.70;52.39;95999.03;5035045;28;20031;-33
2022/09/30 07:13:27;;;;;;;2.55;1.45;;;;;;;22.70;52.52;96008.09;5035229;28;20029;-33
2022/09/30 07:15:55;;;;;;;2.30;0.90;;;;;;;22.67;52.51;96009.13;5035383;28;20044;-33
2022/09/30 07:18:21;;;;;;;3.15;1.20;;;;;;;22.61;52.64;96027.03;5035476;28;20057;-33
2022/09/30 07:20:51;;;;;;;1.58;0.93;;;;;;;22.66;52.72;96023.44;5035126;28;20037;-34
2022/09/30 07:23:17;;;;;;;3.42;1.35;;;;;;;22.74;52.49;96021.63;5034936;28;20029;-34
2022/09/30 07:25:57;;;;;;;1.88;0.70;;;;;;;22.61;53.12;96032.56;5027938;28;20025;-33
2022/09/30 07:28:30;;;;;;;2.80;0.90;;;;;;;22.59;53.07;96030.31;5034994;28;20029;-33
2022/09/30 07:30:58;;;;;;;0.88;0.60;;;;;;;22.67;53.06;96036.00;5034995;28;20032;-34
2022/09/30 07:33:25;;;;;;;1.60;0.70;;;;;;;22.65;53.29;96038.53;5034902;28;21074;-33
2022/09/30 07:35:56;;;;;;;2.17;0.90;;;;;;;22.72;52.72;96044.25;5034599;28;20083;-33
2022/09/30 07:38:25;;;;;;;2.35;0.90;;;;;;;22.65;52.72;96049.59;5034765;28;20037;-33
2022/09/30 07:41:02;;;;;;;3.00;0.80;;;;;;;22.71;53.27;96048.28;5034870;28;20037;-33
2022/09/30 07:43:33;;;;;;;2.17;0.65;;;;;;;22.62;53.27;96058.94;5034930;28;20029;-33
2022/09/30 07:46:08;;;;;;;2.58;1.20;;;;;;;22.79;52.81;96059.56;5034728;28;20797;-33
2022/09/30 07:51:05;;;;;;;1.73;1.00;;;;;;;22.62;53.23;96067.97;5034779;28;20124;-33
2022/09/30 07:53:31;;;;;;;1.38;0.82;;;;;;;22.65;53.34;96077.22;5034442;28;20029;-33
2022/09/30 07:56:02;;;;;;;1.58;0.75;;;;;;;22.68;53.22;96085.25;5034529;28;20476;-33
2022/09/30 07:58:27;;;;;;;1.80;0.70;;;;;;;22.62;53.38;96090.09;5032208;28;20355;-33
2022/09/30 08:00:52;;;;;;;4.00;1.00;;;;;;;22.67;53.47;96089.28;5014639;28;20037;-33
2022/09/30 08:03:18;;;;;;;5.28;1.08;;;;;;;22.57;53.73;96085.34;5014750;28;20022;-33
2022/09/30 08:05:44;;;;;;;2.03;0.88;;;;;;;22.68;53.58;96093.53;5019585;28;20036;-33
2022/09/30 08:08:12;;;;;;;3.60;0.93;;;;;;;22.80;53.37;96085.94;5035079;28;20030;-33
2022/09/30 08:10:37;;;;;;;2.97;0.70;;;;;;;22.68;53.95;96098.31;5036056;28;20156;-33
2022/09/30 08:13:02;;;;;;;3.97;1.15;;;;;;;22.54;54.34;96095.41;5035853;28;20510;-33
2022/09/30 08:15:28;;;;;;;2.40;0.90;;;;;;;22.54;53.89;96092.63;5035607;28;20048;-34
2022/09/30 08:17:53;;;;;;;3.33;0.90;;;;;;;22.68;54.00;96098.31;5035484;28;20036;-33
2022/09/30 08:20:32;;;;;;;3.13;1.10;;;;;;;21.95;57.89;96101.53;5035831;28;20109;-34
2022/09/30 08:22:57;;;;;;;2.22;1.00;;;;;;;22.36;56.06;96101.56;5035748;28;20100;-34
2022/09/30 08:25:23;;;;;;;3.15;1.05;;;;;;;22.42;56.82;96113.31;5035654;28;20078;-34
2022/09/30 08:27:49;;;;;;;2.53;0.88;;;;;;;22.54;55.62;96103.69;5035937;28;20339;-34
2022/09/30 08:30:16;;;;;;;4.18;1.00;;;;;;;22.66;55.21;96100.84;5034783;28;20108;-34
2022/09/30 08:32:42;;;;;;;2.67;0.82;;;;;;;22.76;55.30;96094.50;5035626;28;20033;-34
2022/09/30 08:35:08;;;;;;;1.95;0.90;;;;;;;22.70;55.18;96090.25;5035539;28;20025;-34
2022/09/30 08:37:33;;;;;;;3.35;1.08;;;;;;;22.72;54.76;96107.09;5035755;28;20069;-34
2022/09/30 08:39:59;;;;;;;2.22;1.27;;;;;;;22.71;55.37;96111.88;5035594;28;20044;-34
2022/09/30 08:42:57;;;;;;;3.80;1.20;;;;;;;22.76;54.80;96102.03;5035506;28;20021;-34
2022/09/30 08:45:58;;;;;;;3.00;1.00;;;;;;;22.82;54.43;96108.28;5035400;28;20024;-34
2022/09/30 08:48:29;;;;;;;1.88;0.98;;;;;;;22.60;55.27;96103.66;5034633;28;20068;-34
2022/09/30 08:51:26;;;;;;;3.40;0.90;;;;;;;22.53;55.83;96109.72;5035621;28;20025;-34
2022/09/30 08:53:54;;;;;;;3.05;1.10;;;;;;;22.54;56.13;96111.22;5035372;28;20025;-34
2022/09/30 08:56:26;;;;;;;4.15;1.35;;;;;;;22.45;56.40;96098.50;5035053;28;20079;-34
2022/09/30 08:58:58;;;;;;;5.38;1.05;;;;;;;22.49;56.32;96103.75;5035312;28;20078;-34
2022/09/30 09:01:37;;;;;;;4.65;1.25;;;;;;;22.06;58.42;96111.78;5035073;28;20029;-34
2022/09/30 09:04:05;;;;;;;4.68;1.05;;;;;;;22.20;57.45;96107.94;5035086;28;20363;-34
2022/09/30 09:07:06;;;;;;;5.28;1.45;;;;;;;21.96;58.64;96091.97;5035074;28;20028;-34
2022/09/30 09:09:34;;;;;;;2.45;1.13;;;;;;;22.15;57.56;96103.94;5034975;28;20412;-34
2022/09/30 09:12:21;;;;;;;1.80;0.77;;;;;;;21.72;59.06;96100.88;5034802;28;20080;-34
2022/09/30 09:15:13;;;;;;;4.80;1.35;;;;;;;21.48;60.01;96109.75;5035241;28;20022;-34
2022/09/30 09:18:23;;;;;;;2.58;1.10;;;;;;;22.08;57.67;96098.22;5033786;28;20025;-34
2022/09/30 09:21:08;;;;;;;6.70;1.10;;;;;;;21.77;59.10;96100.09;5034249;28;20035;-34
2022/09/30 09:23:34;;;;;;;3.28;1.05;;;;;;;21.96;58.56;96099.50;5034739;28;20029;-34
2022/09/30 09:26:00;;;;;;;6.72;1.52;;;;;;;21.68;59.35;96103.16;5034904;28;20021;-34
2022/09/30 09:28:46;;;;;;;5.30;1.20;;;;;;;21.44;59.66;96123.03;5034935;28;20469;-34
2022/09/30 09:31:15;;;;;;;5.57;1.23;;;;;;;21.74;58.86;96103.13;5034568;28;20029;-34
2022/09/30 09:33:42;;;;;;;5.72;1.73;;;;;;;21.56;59.03;96115.47;5034378;28;20357;-35
2022/09/30 09:36:22;;;;;;;5.68;1.25;;;;;;;21.68;58.90;96092.09;5034406;28;20097;-34
2022/09/30 09:39:17;;;;;;;4.35;1.40;;;;;;;21.88;58.37;96115.88;5034132;28;20401;-34
2022/09/30 09:41:54;;;;;;;6.97;1.20;;;;;;;21.38;60.40;96093.97;5034043;28;20111;-35
2022/09/30 09:44:35;;;;;;;4.70;1.23;;;;;;;21.85;58.84;96092.78;5034561;28;20461;-36
2022/09/30 09:47:04;;;;;;;2.85;1.08;;;;;;;21.82;58.71;96088.28;5034004;28;20025;-34
2022/09/30 09:49:33;;;;;;;4.28;1.40;;;;;;;22.03;58.09;96093.47;5034377;28;20108;-34
2022/09/30 09:52:11;;;;;;;3.17;1.15;;;;;;;22.03;58.38;96082.41;5034083;28;20025;-34
2022/09/30 09:54:55;;;;;;;4.80;1.20;;;;;;;22.35;57.17;96085.50;5034155;28;20030;-34
2022/09/30 09:57:24;;;;;;;5.03;1.63;;;;;;;22.40;56.92;96098.50;5034297;28;20040;-34
2022/09/30 09:59:57;;;;;;;5.15;1.10;;;;;;;22.39;56.85;96092.25;5033893;28;20478;-34
2022/09/30 10:02:28;;;;;;;3.95;1.60;;;;;;;22.60;56.41;96094.63;5032587;28;20436;-34
2022/09/30 10:05:02;;;;;;;4.05;1.65;;;;;;;22.56;56.42;96109.47;5032379;28;20091;-34
2022/09/30 10:07:30;;;;;;;2.83;1.00;;;;;;;22.50;56.83;96105.25;5031927;28;20108;-34
2022/09/30 10:10:24;;;;;;;5.95;1.58;;;;;;;22.52;56.86;96114.50;5033474;28;20025;-34
2022/09/30 10:12:50;;;;;;;5.13;1.45;;;;;;;22.46;56.54;96119.34;5033259;28;20038;-34
2022/09/30 10:15:23;;;;;;;4.80;1.40;;;;;;;22.48;56.52;96116.06;5033643;28;20025;-34
2022/09/30 10:17:55;;;;;;;3.15;1.00;;;;;;;22.37;56.86;96113.38;5033740;28;20049;-34
2022/09/30 10:20:33;;;;;;;3.78;1.20;;;;;;;22.48;56.60;96111.28;5033659;28;20119;-34
2022/09/30 10:23:17;;;;;;;4.43;1.20;;;;;;;22.47;57.59;96112.53;5033665;28;20394;-34
2022/09/30 10:26:14;;;;;;;3.78;1.33;;;;;;;22.05;59.48;96113.03;5033863;28;20394;-34
2022/09/30 10:28:52;;;;;;;4.75;1.75;;;;;;;22.29;59.11;96115.91;5033373;28;20033;-34
2022/09/30 10:31:26;;;;;;;7.63;1.65;;;;;;;21.69;62.50;96112.94;5033379;28;20112;-34
2022/09/30 10:34:18;;;;;;;3.97;1.30;;;;;;;22.05;60.90;96099.25;5033602;28;20025;-34
2022/09/30 10:36:45;;;;;;;7.13;1.58;;;;;;;22.00;61.69;96105.56;5033748;28;20033;-34
2022/09/30 10:39:25;;;;;;;5.32;1.60;;;;;;;21.83;62.33;96109.09;5033362;28;20041;-34
2022/09/30 10:42:08;;;;;;;7.57;2.65;;;;;;;21.88;62.45;96140.72;5033375;28;20038;-34
2022/09/30 10:44:46;;;;;;;7.70;1.70;;;;;;;21.76;62.37;96130.97;5033671;28;20426;-35
2022/09/30 10:47:22;;;;;;;5.80;1.42;;;;;;;21.71;62.90;96126.97;5033346;28;20021;-34
2022/09/30 10:49:53;;;;;;;6.55;1.77;;;;;;;21.36;63.95;96129.59;5032131;28;20026;-34
2022/09/30 10:52:25;;;;;;;10.38;1.80;;;;;;;21.48;63.07;96137.34;5033313;28;20031;-34
2022/09/30 10:54:56;;;;;;;7.65;2.00;;;;;;;21.93;61.45;96119.84;5033374;28;20045;-34
2022/09/30 10:57:32;;;;;;;5.40;1.63;;;;;;;21.79;62.14;96150.03;5033178;28;20142;-34
2022/09/30 11:00:16;;;;;;;7.07;1.48;;;;;;;21.79;61.97;96125.19;5033394;28;20017;-34
2022/09/30 11:02:53;;;;;;;;;;;;;;;21.26;63.25;96133.88;5033626;28;20037;-34
2022/09/30 11:05:30;;;;;;;5.90;1.10;;;;;;;22.07;60.38;96155.47;5033219;28;19909;-34
2022/09/30 11:08:02;;;;;;;4.95;1.48;;;;;;;22.02;60.11;96136.16;5033281;28;20029;-34
2022/09/30 11:10:46;;;;;;;7.13;1.90;;;;;;;22.23;59.63;96139.31;5033065;28;20477;-34
2022/09/30 11:13:36;;;;;;;7.85;2.00;;;;;;;21.70;60.45;96180.66;5033317;28;20104;-34
2022/09/30 11:16:16;;;;;;;6.90;1.60;;;;;;;22.28;59.29;96138.53;5033067;28;20028;-34
2022/09/30 11:19:27;;;;;;;6.60;1.45;;;;;;;22.49;57.90;96134.91;5033099;28;20151;-34
2022/09/30 11:22:03;;;;;;;5.18;1.40;;;;;;;22.41;58.12;96153.25;5030941;28;20025;-34
2022/09/30 11:24:42;;;;;;;5.97;1.52;;;;;;;22.55;57.23;96148.66;5031091;28;20076;-34
2022/09/30 11:27:14;;;;;;;5.15;1.77;;;;;;;22.35;57.87;96155.31;5030932;28;20084;-34
2022/09/30 11:30:00;;;;;;;4.55;1.35;;;;;;;22.36;58.25;96161.59;5030877;28;20221;-34
2022/09/30 11:32:43;;;;;;;2.75;1.30;;;;;;;22.33;58.03;96166.13;5030982;28;20029;-34
2022/09/30 11:35:43;;;;;;;6.50;1.73;;;;;;;22.35;58.16;96173.91;5014475;28;20413;-34
2022/09/30 11:38:27;;;;;;;3.70;1.50;;;;;;;22.26;58.09;96169.41;5030696;28;20486;-34
2022/09/30 11:41:14;;;;;;;4.45;1.27;;;;;;;22.26;58.43;96161.13;5030933;28;20025;-34
2022/09/30 11:43:40;;;;;;;8.07;1.63;;;;;;;22.40;58.13;96142.72;5032832;28;20399;-34
2022/09/30 11:46:21;;;;;;;2.92;1.23;;;;;;;22.42;58.61;96149.25;5034570;28;20082;-34
2022/09/30 11:49:05;;;;;;;4.03;1.35;;;;;;;22.44;58.95;96148.72;5034286;28;20063;-34
2022/09/30 11:51:53;;;;;;;4.10;1.42;;;;;;;22.42;58.11;96145.72;5034555;28;20056;-34
2022/09/30 11:54:53;;;;;;;3.53;1.58;;;;;;;22.26;59.13;96147.31;5034279;28;20029;-34
2022/09/30 11:57:45;;;;;;;5.95;1.85;;;;;;;22.31;59.73;96143.78;5032351;28;20026;-34
2022/09/30 12:00:16;;;;;;;4.50;1.42;;;;;;;22.34;59.23;96139.25;5014840;28;20034;-34
2022/09/30 12:02:45;;;;;;;6.72;1.90;;;;;;;22.16;60.84;96129.56;5025243;28;20030;-34
2022/09/30 12:05:36;;;;;;;8.48;1.60;;;;;;;22.01;61.74;96110.53;5034361;28;20021;-34
2022/09/30 12:08:14;;;;;;;10.40;2.33;;;;;;;21.75;63.02;96119.19;5034217;28;20034;-34